sensor_id;sensor_type;location;lat;lon;timestamp;temperature;humidity
66373;SHT30;53168;51.146;17.120;2022-09-17T00:04:50;12.81;65.45
66373;SHT30;53168;51.146;17.120;2022-09-17T00:07:20;12.59;65.66
66373;SHT30;53168;51.146;17.120;2022-09-17T00:09:50;12.41;65.84
66373;SHT30;53168;51.146;17.120;2022-09-17T00:12:20;12.22;66.15
66373;SHT30;53168;51.146;17.120;2022-09-17T00:14:49;12.08;66.15
66373;SHT30;53168;51.146;17.120;2022-09-17T00:17:19;11.96;66.25
66373;SHT30;53168;51.146;17.120;2022-09-17T00:19:54;11.85;66.45
66373;SHT30;53168;51.146;17.120;2022-09-17T00:22:24;11.74;66.73
66373;SHT30;53168;51.146;17.120;2022-09-17T00:24:54;11.66;66.79
66373;SHT30;53168;51.146;17.120;2022-09-17T00:27:23;11.62;66.82
66373;SHT30;53168;51.146;17.120;2022-09-17T00:29:53;11.60;66.85
66373;SHT30;53168;51.146;17.120;2022-09-17T00:32:23;11.57;66.87
66373;SHT30;53168;51.146;17.120;2022-09-17T00:34:53;11.53;66.93
66373;SHT30;53168;51.146;17.120;2022-09-17T00:37:22;11.50;66.98
66373;SHT30;53168;51.146;17.120;2022-09-17T00:39:52;11.47;66.98
66373;SHT30;53168;51.146;17.120;2022-09-17T00:42:21;11.42;66.99
66373;SHT30;53168;51.146;17.120;2022-09-17T00:44:51;11.37;67.10
66373;SHT30;53168;51.146;17.120;2022-09-17T00:47:24;11.32;67.19
66373;SHT30;53168;51.146;17.120;2022-09-17T00:50:00;11.29;67.26
66373;SHT30;53168;51.146;17.120;2022-09-17T00:52:36;11.29;67.27
66373;SHT30;53168;51.146;17.120;2022-09-17T00:55:19;11.29;67.24
66373;SHT30;53168;51.146;17.120;2022-09-17T00:57:55;11.30;67.29
66373;SHT30;53168;51.146;17.120;2022-09-17T01:00:29;11.28;67.33
66373;SHT30;53168;51.146;17.120;2022-09-17T01:02:59;11.25;67.39
66373;SHT30;53168;51.146;17.120;2022-09-17T01:05:30;11.24;67.53
66373;SHT30;53168;51.146;17.120;2022-09-17T01:08:12;11.22;67.42
66373;SHT30;53168;51.146;17.120;2022-09-17T01:10:56;11.20;67.44
66373;SHT30;53168;51.146;17.120;2022-09-17T01:14:01;11.21;67.70
66373;SHT30;53168;51.146;17.120;2022-09-17T01:16:56;11.24;67.46
66373;SHT30;53168;51.146;17.120;2022-09-17T01:19:46;11.26;67.46
66373;SHT30;53168;51.146;17.120;2022-09-17T01:22:59;11.30;67.41
66373;SHT30;53168;51.146;17.120;2022-09-17T01:25:57;11.33;67.49
66373;SHT30;53168;51.146;17.120;2022-09-17T01:28:52;11.33;67.45
66373;SHT30;53168;51.146;17.120;2022-09-17T01:31:35;11.33;67.49
66373;SHT30;53168;51.146;17.120;2022-09-17T01:34:17;11.35;67.43
66373;SHT30;53168;51.146;17.120;2022-09-17T01:36:57;11.35;67.43
66373;SHT30;53168;51.146;17.120;2022-09-17T01:39:41;11.35;67.45
66373;SHT30;53168;51.146;17.120;2022-09-17T01:42:21;11.38;67.37
66373;SHT30;53168;51.146;17.120;2022-09-17T01:44:59;11.40;67.41
66373;SHT30;53168;51.146;17.120;2022-09-17T01:47:35;11.41;67.37
66373;SHT30;53168;51.146;17.120;2022-09-17T01:50:15;11.40;67.36
66373;SHT30;53168;51.146;17.120;2022-09-17T01:52:51;11.40;67.33
66373;SHT30;53168;51.146;17.120;2022-09-17T01:55:24;11.38;67.38
66373;SHT30;53168;51.146;17.120;2022-09-17T01:58:03;11.36;67.40
66373;SHT30;53168;51.146;17.120;2022-09-17T02:00:37;11.37;67.38
66373;SHT30;53168;51.146;17.120;2022-09-17T02:03:15;11.36;67.40
66373;SHT30;53168;51.146;17.120;2022-09-17T02:05:49;11.35;67.47
66373;SHT30;53168;51.146;17.120;2022-09-17T02:08:26;11.35;67.44
66373;SHT30;53168;51.146;17.120;2022-09-17T02:11:02;11.33;67.57
66373;SHT30;53168;51.146;17.120;2022-09-17T02:13:37;11.31;67.60
66373;SHT30;53168;51.146;17.120;2022-09-17T02:16:13;11.25;67.78
66373;SHT30;53168;51.146;17.120;2022-09-17T02:18:52;11.16;67.95
66373;SHT30;53168;51.146;17.120;2022-09-17T02:21:30;11.10;68.01
66373;SHT30;53168;51.146;17.120;2022-09-17T02:24:10;11.03;68.16
66373;SHT30;53168;51.146;17.120;2022-09-17T02:26:47;10.95;68.37
66373;SHT30;53168;51.146;17.120;2022-09-17T02:29:25;10.85;68.67
66373;SHT30;53168;51.146;17.120;2022-09-17T02:32:01;10.76;68.98
66373;SHT30;53168;51.146;17.120;2022-09-17T02:34:32;10.67;69.11
66373;SHT30;53168;51.146;17.120;2022-09-17T02:37:02;10.59;69.41
66373;SHT30;53168;51.146;17.120;2022-09-17T02:39:33;10.54;69.57
66373;SHT30;53168;51.146;17.120;2022-09-17T02:42:04;10.50;69.79
66373;SHT30;53168;51.146;17.120;2022-09-17T02:44:50;10.48;69.75
66373;SHT30;53168;51.146;17.120;2022-09-17T02:50:42;10.44;70.12
66373;SHT30;53168;51.146;17.120;2022-09-17T02:53:33;10.42;70.59
66373;SHT30;53168;51.146;17.120;2022-09-17T02:56:15;10.45;70.77
66373;SHT30;53168;51.146;17.120;2022-09-17T02:58:56;10.51;70.84
66373;SHT30;53168;51.146;17.120;2022-09-17T03:01:37;10.56;71.01
66373;SHT30;53168;51.146;17.120;2022-09-17T03:04:12;10.63;70.86
66373;SHT30;53168;51.146;17.120;2022-09-17T03:06:46;10.72;70.88
66373;SHT30;53168;51.146;17.120;2022-09-17T03:09:18;10.81;70.78
66373;SHT30;53168;51.146;17.120;2022-09-17T03:11:47;10.91;70.63
66373;SHT30;53168;51.146;17.120;2022-09-17T03:14:17;11.00;70.41
66373;SHT30;53168;51.146;17.120;2022-09-17T03:16:46;11.09;70.18
66373;SHT30;53168;51.146;17.120;2022-09-17T03:19:16;11.17;70.02
66373;SHT30;53168;51.146;17.120;2022-09-17T03:21:45;11.23;69.97
66373;SHT30;53168;51.146;17.120;2022-09-17T03:24:14;11.30;69.77
66373;SHT30;53168;51.146;17.120;2022-09-17T03:26:44;11.38;69.72
66373;SHT30;53168;51.146;17.120;2022-09-17T03:29:15;11.45;69.65
66373;SHT30;53168;51.146;17.120;2022-09-17T03:31:44;11.51;69.52
66373;SHT30;53168;51.146;17.120;2022-09-17T03:34:13;11.57;69.24
66373;SHT30;53168;51.146;17.120;2022-09-17T03:36:43;11.60;69.52
66373;SHT30;53168;51.146;17.120;2022-09-17T03:39:12;11.60;69.97
66373;SHT30;53168;51.146;17.120;2022-09-17T03:41:41;11.59;69.96
66373;SHT30;53168;51.146;17.120;2022-09-17T03:44:10;11.59;70.11
66373;SHT30;53168;51.146;17.120;2022-09-17T03:46:42;11.58;70.52
66373;SHT30;53168;51.146;17.120;2022-09-17T03:49:12;11.56;70.42
66373;SHT30;53168;51.146;17.120;2022-09-17T03:51:41;11.53;70.55
66373;SHT30;53168;51.146;17.120;2022-09-17T03:54:11;11.50;70.72
66373;SHT30;53168;51.146;17.120;2022-09-17T03:56:40;11.50;70.65
66373;SHT30;53168;51.146;17.120;2022-09-17T03:59:09;11.50;70.80
66373;SHT30;53168;51.146;17.120;2022-09-17T04:01:39;11.49;70.77
66373;SHT30;53168;51.146;17.120;2022-09-17T04:04:08;11.48;70.89
66373;SHT30;53168;51.146;17.120;2022-09-17T04:06:37;11.47;70.84
66373;SHT30;53168;51.146;17.120;2022-09-17T04:09:06;11.48;70.82
66373;SHT30;53168;51.146;17.120;2022-09-17T04:11:35;11.48;70.88
66373;SHT30;53168;51.146;17.120;2022-09-17T04:14:04;11.49;70.89
66373;SHT30;53168;51.146;17.120;2022-09-17T04:16:33;11.51;70.87
66373;SHT30;53168;51.146;17.120;2022-09-17T04:19:03;11.53;70.83
66373;SHT30;53168;51.146;17.120;2022-09-17T04:21:32;11.52;70.86
66373;SHT30;53168;51.146;17.120;2022-09-17T04:24:01;11.52;70.95
66373;SHT30;53168;51.146;17.120;2022-09-17T04:26:31;11.53;71.01
66373;SHT30;53168;51.146;17.120;2022-09-17T04:29:00;11.54;70.99
66373;SHT30;53168;51.146;17.120;2022-09-17T04:31:29;11.55;71.01
66373;SHT30;53168;51.146;17.120;2022-09-17T04:34:00;11.56;70.92
66373;SHT30;53168;51.146;17.120;2022-09-17T04:36:29;11.57;70.95
66373;SHT30;53168;51.146;17.120;2022-09-17T04:38:58;11.56;70.96
66373;SHT30;53168;51.146;17.120;2022-09-17T04:41:27;11.57;71.01
66373;SHT30;53168;51.146;17.120;2022-09-17T04:43:56;11.60;70.94
66373;SHT30;53168;51.146;17.120;2022-09-17T04:46:25;11.62;71.10
66373;SHT30;53168;51.146;17.120;2022-09-17T04:48:54;11.62;71.37
66373;SHT30;53168;51.146;17.120;2022-09-17T04:51:24;11.59;72.04
66373;SHT30;53168;51.146;17.120;2022-09-17T04:53:53;11.55;72.23
66373;SHT30;53168;51.146;17.120;2022-09-17T04:56:22;11.52;72.31
66373;SHT30;53168;51.146;17.120;2022-09-17T04:58:51;11.52;72.30
66373;SHT30;53168;51.146;17.120;2022-09-17T05:01:20;11.51;72.49
66373;SHT30;53168;51.146;17.120;2022-09-17T05:03:49;11.51;72.36
66373;SHT30;53168;51.146;17.120;2022-09-17T05:06:18;11.51;72.54
66373;SHT30;53168;51.146;17.120;2022-09-17T05:08:47;11.54;72.50
66373;SHT30;53168;51.146;17.120;2022-09-17T05:11:16;11.56;72.37
66373;SHT30;53168;51.146;17.120;2022-09-17T05:13:46;11.60;72.35
66373;SHT30;53168;51.146;17.120;2022-09-17T05:16:15;11.64;72.26
66373;SHT30;53168;51.146;17.120;2022-09-17T05:18:44;11.68;72.28
66373;SHT30;53168;51.146;17.120;2022-09-17T05:21:15;11.71;72.24
66373;SHT30;53168;51.146;17.120;2022-09-17T05:23:44;11.73;72.32
66373;SHT30;53168;51.146;17.120;2022-09-17T05:26:13;11.76;72.55
66373;SHT30;53168;51.146;17.120;2022-09-17T05:28:43;11.81;72.41
66373;SHT30;53168;51.146;17.120;2022-09-17T05:31:12;11.85;72.26
66373;SHT30;53168;51.146;17.120;2022-09-17T05:33:41;11.88;72.38
66373;SHT30;53168;51.146;17.120;2022-09-17T05:36:15;11.91;72.24
66373;SHT30;53168;51.146;17.120;2022-09-17T05:38:45;11.97;71.99
66373;SHT30;53168;51.146;17.120;2022-09-17T05:41:14;12.03;71.96
66373;SHT30;53168;51.146;17.120;2022-09-17T05:43:44;12.12;71.81
66373;SHT30;53168;51.146;17.120;2022-09-17T05:46:14;12.19;71.72
66373;SHT30;53168;51.146;17.120;2022-09-17T05:48:48;12.27;71.54
66373;SHT30;53168;51.146;17.120;2022-09-17T05:54:30;12.37;71.40
66373;SHT30;53168;51.146;17.120;2022-09-17T05:57:01;12.43;71.31
66373;SHT30;53168;51.146;17.120;2022-09-17T05:59:32;12.52;71.12
66373;SHT30;53168;51.146;17.120;2022-09-17T06:02:02;12.60;70.92
66373;SHT30;53168;51.146;17.120;2022-09-17T06:04:32;12.64;70.89
66373;SHT30;53168;51.146;17.120;2022-09-17T06:07:03;12.66;70.72
66373;SHT30;53168;51.146;17.120;2022-09-17T06:09:35;12.66;70.68
66373;SHT30;53168;51.146;17.120;2022-09-17T06:12:07;12.70;70.71
66373;SHT30;53168;51.146;17.120;2022-09-17T06:14:42;12.74;70.62
66373;SHT30;53168;51.146;17.120;2022-09-17T06:17:15;12.85;70.55
66373;SHT30;53168;51.146;17.120;2022-09-17T06:19:48;12.89;70.51
66373;SHT30;53168;51.146;17.120;2022-09-17T06:22:18;12.90;70.54
66373;SHT30;53168;51.146;17.120;2022-09-17T06:24:49;12.88;70.58
66373;SHT30;53168;51.146;17.120;2022-09-17T06:27:19;12.91;70.49
66373;SHT30;53168;51.146;17.120;2022-09-17T06:30:11;12.93;70.46
66373;SHT30;53168;51.146;17.120;2022-09-17T06:32:43;13.00;70.39
66373;SHT30;53168;51.146;17.120;2022-09-17T06:35:12;13.04;70.30
66373;SHT30;53168;51.146;17.120;2022-09-17T06:37:47;13.04;70.20
66373;SHT30;53168;51.146;17.120;2022-09-17T06:40:18;13.02;70.15
66373;SHT30;53168;51.146;17.120;2022-09-17T06:42:49;13.02;70.35
66373;SHT30;53168;51.146;17.120;2022-09-17T06:48:26;13.08;70.41
66373;SHT30;53168;51.146;17.120;2022-09-17T06:51:00;13.10;70.35
66373;SHT30;53168;51.146;17.120;2022-09-17T06:53:34;13.15;70.21
66373;SHT30;53168;51.146;17.120;2022-09-17T06:56:05;13.18;70.20
66373;SHT30;53168;51.146;17.120;2022-09-17T06:58:35;13.15;70.05
66373;SHT30;53168;51.146;17.120;2022-09-17T07:01:08;13.16;70.01
66373;SHT30;53168;51.146;17.120;2022-09-17T07:03:41;13.19;70.02
66373;SHT30;53168;51.146;17.120;2022-09-17T07:06:11;13.20;70.06
66373;SHT30;53168;51.146;17.120;2022-09-17T07:08:40;13.30;70.05
66373;SHT30;53168;51.146;17.120;2022-09-17T07:11:10;13.41;69.95
66373;SHT30;53168;51.146;17.120;2022-09-17T07:13:39;13.46;69.63
66373;SHT30;53168;51.146;17.120;2022-09-17T07:16:10;13.48;69.65
66373;SHT30;53168;51.146;17.120;2022-09-17T07:18:40;13.48;69.54
66373;SHT30;53168;51.146;17.120;2022-09-17T07:21:09;13.48;69.43
66373;SHT30;53168;51.146;17.120;2022-09-17T07:23:39;13.49;69.49
66373;SHT30;53168;51.146;17.120;2022-09-17T07:26:11;13.52;69.43
66373;SHT30;53168;51.146;17.120;2022-09-17T07:28:42;13.55;69.46
66373;SHT30;53168;51.146;17.120;2022-09-17T07:31:12;13.57;69.50
66373;SHT30;53168;51.146;17.120;2022-09-17T07:33:43;13.63;69.66
66373;SHT30;53168;51.146;17.120;2022-09-17T07:36:13;13.72;69.52
66373;SHT30;53168;51.146;17.120;2022-09-17T07:38:43;13.77;69.09
66373;SHT30;53168;51.146;17.120;2022-09-17T07:41:13;13.83;69.04
66373;SHT30;53168;51.146;17.120;2022-09-17T07:43:44;13.79;68.83
66373;SHT30;53168;51.146;17.120;2022-09-17T07:46:18;13.73;68.67
66373;SHT30;53168;51.146;17.120;2022-09-17T07:48:49;13.73;68.66
66373;SHT30;53168;51.146;17.120;2022-09-17T07:51:19;13.77;68.94
66373;SHT30;53168;51.146;17.120;2022-09-17T07:53:51;13.73;68.70
66373;SHT30;53168;51.146;17.120;2022-09-17T07:56:22;13.76;68.84
66373;SHT30;53168;51.146;17.120;2022-09-17T08:01:39;13.83;68.97
66373;SHT30;53168;51.146;17.120;2022-09-17T08:04:08;13.84;68.90
66373;SHT30;53168;51.146;17.120;2022-09-17T08:06:37;13.90;68.76
66373;SHT30;53168;51.146;17.120;2022-09-17T08:09:11;13.96;68.64
66373;SHT30;53168;51.146;17.120;2022-09-17T08:11:55;14.01;68.56
66373;SHT30;53168;51.146;17.120;2022-09-17T08:14:34;14.10;68.48
66373;SHT30;53168;51.146;17.120;2022-09-17T08:17:06;14.11;68.55
66373;SHT30;53168;51.146;17.120;2022-09-17T08:19:35;14.13;68.62
66373;SHT30;53168;51.146;17.120;2022-09-17T08:22:04;14.19;68.40
66373;SHT30;53168;51.146;17.120;2022-09-17T08:24:34;14.19;68.16
66373;SHT30;53168;51.146;17.120;2022-09-17T08:27:03;14.27;68.16
66373;SHT30;53168;51.146;17.120;2022-09-17T08:29:32;14.23;67.96
66373;SHT30;53168;51.146;17.120;2022-09-17T08:32:02;14.22;67.81
66373;SHT30;53168;51.146;17.120;2022-09-17T08:34:31;14.28;67.79
66373;SHT30;53168;51.146;17.120;2022-09-17T08:37:02;14.41;67.82
66373;SHT30;53168;51.146;17.120;2022-09-17T08:39:36;14.54;67.65
66373;SHT30;53168;51.146;17.120;2022-09-17T08:42:07;14.55;67.38
66373;SHT30;53168;51.146;17.120;2022-09-17T08:44:45;14.63;67.65
66373;SHT30;53168;51.146;17.120;2022-09-17T08:47:21;14.68;67.24
66373;SHT30;53168;51.146;17.120;2022-09-17T08:49:55;14.69;67.08
66373;SHT30;53168;51.146;17.120;2022-09-17T08:52:40;14.77;67.21
66373;SHT30;53168;51.146;17.120;2022-09-17T08:55:30;14.94;66.99
66373;SHT30;53168;51.146;17.120;2022-09-17T08:58:22;15.02;66.69
66373;SHT30;53168;51.146;17.120;2022-09-17T09:01:15;15.12;66.75
66373;SHT30;53168;51.146;17.120;2022-09-17T09:04:01;15.14;66.81
66373;SHT30;53168;51.146;17.120;2022-09-17T09:06:47;15.19;66.85
66373;SHT30;53168;51.146;17.120;2022-09-17T09:09:20;15.21;66.42
66373;SHT30;53168;51.146;17.120;2022-09-17T09:11:59;15.13;66.30
66373;SHT30;53168;51.146;17.120;2022-09-17T09:14:37;14.95;66.19
66373;SHT30;53168;51.146;17.120;2022-09-17T09:17:17;14.85;66.39
66373;SHT30;53168;51.146;17.120;2022-09-17T09:27:44;14.80;67.08
66373;SHT30;53168;51.146;17.120;2022-09-17T09:30:41;14.85;66.99
66373;SHT30;53168;51.146;17.120;2022-09-17T09:33:34;14.90;66.85
66373;SHT30;53168;51.146;17.120;2022-09-17T09:36:15;14.80;66.77
66373;SHT30;53168;51.146;17.120;2022-09-17T09:38:50;14.74;66.84
66373;SHT30;53168;51.146;17.120;2022-09-17T09:41:30;14.56;67.06
66373;SHT30;53168;51.146;17.120;2022-09-17T09:44:10;14.41;67.46
66373;SHT30;53168;51.146;17.120;2022-09-17T09:46:50;14.37;67.61
66373;SHT30;53168;51.146;17.120;2022-09-17T09:49:46;14.39;67.70
66373;SHT30;53168;51.146;17.120;2022-09-17T09:52:42;14.42;67.82
66373;SHT30;53168;51.146;17.120;2022-09-17T09:55:35;14.47;67.76
66373;SHT30;53168;51.146;17.120;2022-09-17T10:01:30;14.51;67.80
66373;SHT30;53168;51.146;17.120;2022-09-17T10:04:14;14.56;67.84
66373;SHT30;53168;51.146;17.120;2022-09-17T10:06:49;14.61;67.85
66373;SHT30;53168;51.146;17.120;2022-09-17T10:09:21;14.70;67.62
66373;SHT30;53168;51.146;17.120;2022-09-17T10:11:59;14.80;67.46
66373;SHT30;53168;51.146;17.120;2022-09-17T10:14:41;15.04;67.39
66373;SHT30;53168;51.146;17.120;2022-09-17T10:17:15;15.18;67.17
66373;SHT30;53168;51.146;17.120;2022-09-17T10:22:49;15.20;66.52
66373;SHT30;53168;51.146;17.120;2022-09-17T10:25:28;15.14;66.45
66373;SHT30;53168;51.146;17.120;2022-09-17T10:28:01;15.16;66.32
66373;SHT30;53168;51.146;17.120;2022-09-17T10:30:54;15.20;66.18
66373;SHT30;53168;51.146;17.120;2022-09-17T10:33:27;15.31;66.01
66373;SHT30;53168;51.146;17.120;2022-09-17T10:35:59;15.35;66.13
66373;SHT30;53168;51.146;17.120;2022-09-17T10:38:34;15.36;66.13
66373;SHT30;53168;51.146;17.120;2022-09-17T10:43:50;15.33;66.01
66373;SHT30;53168;51.146;17.120;2022-09-17T10:46:20;15.26;65.83
66373;SHT30;53168;51.146;17.120;2022-09-17T10:48:57;15.20;66.11
66373;SHT30;53168;51.146;17.120;2022-09-17T10:51:42;15.15;66.12
66373;SHT30;53168;51.146;17.120;2022-09-17T10:54:23;15.02;66.34
66373;SHT30;53168;51.146;17.120;2022-09-17T10:57:12;14.90;66.66
66373;SHT30;53168;51.146;17.120;2022-09-17T10:59:59;14.85;66.77
66373;SHT30;53168;51.146;17.120;2022-09-17T11:02:59;14.93;66.72
66373;SHT30;53168;51.146;17.120;2022-09-17T11:09:54;15.68;65.82
66373;SHT30;53168;51.146;17.120;2022-09-17T11:13:05;16.25;65.31
66373;SHT30;53168;51.146;17.120;2022-09-17T11:16:10;16.70;64.21
66373;SHT30;53168;51.146;17.120;2022-09-17T11:19:19;16.93;63.98
66373;SHT30;53168;51.146;17.120;2022-09-17T11:22:05;17.03;63.20
66373;SHT30;53168;51.146;17.120;2022-09-17T11:28:00;17.15;63.63
66373;SHT30;53168;51.146;17.120;2022-09-17T11:30:51;17.16;63.25
66373;SHT30;53168;51.146;17.120;2022-09-17T11:33:35;17.04;62.71
66373;SHT30;53168;51.146;17.120;2022-09-17T11:39:30;16.57;62.73
66373;SHT30;53168;51.146;17.120;2022-09-17T11:42:12;16.39;62.84
66373;SHT30;53168;51.146;17.120;2022-09-17T11:44:50;16.29;63.12
66373;SHT30;53168;51.146;17.120;2022-09-17T11:47:29;16.48;63.17
66373;SHT30;53168;51.146;17.120;2022-09-17T11:50:03;17.16;61.99
66373;SHT30;53168;51.146;17.120;2022-09-17T11:52:46;17.52;61.07
66373;SHT30;53168;51.146;17.120;2022-09-17T11:55:32;17.61;59.94
66373;SHT30;53168;51.146;17.120;2022-09-17T11:58:13;18.05;59.35
66373;SHT30;53168;51.146;17.120;2022-09-17T12:00:53;19.88;57.20
66373;SHT30;53168;51.146;17.120;2022-09-17T12:03:31;20.64;54.89
66373;SHT30;53168;51.146;17.120;2022-09-17T12:06:19;20.61;56.27
66373;SHT30;53168;51.146;17.120;2022-09-17T12:09:02;21.65;52.41
66373;SHT30;53168;51.146;17.120;2022-09-17T12:11:43;22.14;52.63
66373;SHT30;53168;51.146;17.120;2022-09-17T12:14:23;22.02;52.86
66373;SHT30;53168;51.146;17.120;2022-09-17T12:17:10;21.09;53.57
66373;SHT30;53168;51.146;17.120;2022-09-17T12:19:49;20.17;53.50
66373;SHT30;53168;51.146;17.120;2022-09-17T12:22:26;19.48;54.54
66373;SHT30;53168;51.146;17.120;2022-09-17T12:25:10;19.13;54.68
66373;SHT30;53168;51.146;17.120;2022-09-17T12:27:47;18.90;55.09
66373;SHT30;53168;51.146;17.120;2022-09-17T12:30:39;18.64;55.43
66373;SHT30;53168;51.146;17.120;2022-09-17T12:33:19;18.61;55.65
66373;SHT30;53168;51.146;17.120;2022-09-17T12:36:07;18.38;55.80
66373;SHT30;53168;51.146;17.120;2022-09-17T12:42:39;17.78;56.59
66373;SHT30;53168;51.146;17.120;2022-09-17T12:48:28;18.51;56.35
66373;SHT30;53168;51.146;17.120;2022-09-17T12:51:32;18.77;55.70
66373;SHT30;53168;51.146;17.120;2022-09-17T12:54:21;18.97;55.65
66373;SHT30;53168;51.146;17.120;2022-09-17T12:57:15;19.81;54.16
66373;SHT30;53168;51.146;17.120;2022-09-17T12:59:59;22.06;51.89
66373;SHT30;53168;51.146;17.120;2022-09-17T13:02:37;23.92;48.80
66373;SHT30;53168;51.146;17.120;2022-09-17T13:05:33;24.68;47.51
66373;SHT30;53168;51.146;17.120;2022-09-17T13:08:48;25.42;47.23
66373;SHT30;53168;51.146;17.120;2022-09-17T13:12:01;25.44;46.75
66373;SHT30;53168;51.146;17.120;2022-09-17T13:18:16;22.16;49.03
66373;SHT30;53168;51.146;17.120;2022-09-17T13:20:57;21.31;49.66
66373;SHT30;53168;51.146;17.120;2022-09-17T13:23:37;21.38;48.92
66373;SHT30;53168;51.146;17.120;2022-09-17T13:29:12;21.21;49.69
66373;SHT30;53168;51.146;17.120;2022-09-17T13:32:44;20.74;50.01
66373;SHT30;53168;51.146;17.120;2022-09-17T13:38:18;20.31;49.98
66373;SHT30;53168;51.146;17.120;2022-09-17T13:40:50;20.67;49.07
66373;SHT30;53168;51.146;17.120;2022-09-17T13:43:47;20.16;50.05
66373;SHT30;53168;51.146;17.120;2022-09-17T13:46:23;19.52;51.02
66373;SHT30;53168;51.146;17.120;2022-09-17T13:48:59;18.87;51.77
66373;SHT30;53168;51.146;17.120;2022-09-17T13:51:48;18.37;52.42
66373;SHT30;53168;51.146;17.120;2022-09-17T13:54:20;17.96;53.02
66373;SHT30;53168;51.146;17.120;2022-09-17T13:57:04;17.59;54.26
66373;SHT30;53168;51.146;17.120;2022-09-17T13:59:52;17.29;55.27
66373;SHT30;53168;51.146;17.120;2022-09-17T14:02:27;17.08;55.38
66373;SHT30;53168;51.146;17.120;2022-09-17T14:08:22;16.62;56.86
66373;SHT30;53168;51.146;17.120;2022-09-17T14:10:58;16.52;57.22
66373;SHT30;53168;51.146;17.120;2022-09-17T14:20:20;16.42;57.14
66373;SHT30;53168;51.146;17.120;2022-09-17T14:22:56;16.33;57.33
66373;SHT30;53168;51.146;17.120;2022-09-17T14:25:34;16.25;58.15
66373;SHT30;53168;51.146;17.120;2022-09-17T14:28:13;16.17;58.96
66373;SHT30;53168;51.146;17.120;2022-09-17T14:30:55;16.15;59.06
66373;SHT30;53168;51.146;17.120;2022-09-17T14:33:26;16.28;59.18
66373;SHT30;53168;51.146;17.120;2022-09-17T14:35:59;16.42;59.13
66373;SHT30;53168;51.146;17.120;2022-09-17T14:38:39;16.42;59.93
66373;SHT30;53168;51.146;17.120;2022-09-17T14:41:19;16.26;60.59
66373;SHT30;53168;51.146;17.120;2022-09-17T14:43:53;16.12;60.54
66373;SHT30;53168;51.146;17.120;2022-09-17T14:46:30;16.05;61.37
66373;SHT30;53168;51.146;17.120;2022-09-17T14:52:18;15.89;62.50
66373;SHT30;53168;51.146;17.120;2022-09-17T14:55:16;16.09;63.15
66373;SHT30;53168;51.146;17.120;2022-09-17T14:57:50;18.05;60.68
66373;SHT30;53168;51.146;17.120;2022-09-17T15:00:31;19.77;58.22
66373;SHT30;53168;51.146;17.120;2022-09-17T15:03:04;20.89;56.81
66373;SHT30;53168;51.146;17.120;2022-09-17T15:05:47;21.45;55.55
66373;SHT30;53168;51.146;17.120;2022-09-17T15:08:19;21.25;55.70
66373;SHT30;53168;51.146;17.120;2022-09-17T15:10:52;20.77;56.02
66373;SHT30;53168;51.146;17.120;2022-09-17T15:13:27;20.34;56.66
66373;SHT30;53168;51.146;17.120;2022-09-17T15:16:02;20.93;55.32
66373;SHT30;53168;51.146;17.120;2022-09-17T15:18:46;21.31;54.47
66373;SHT30;53168;51.146;17.120;2022-09-17T15:21:24;20.81;55.26
66373;SHT30;53168;51.146;17.120;2022-09-17T15:24:06;20.37;55.83
66373;SHT30;53168;51.146;17.120;2022-09-17T15:26:55;20.15;55.65
66373;SHT30;53168;51.146;17.120;2022-09-17T15:29:31;20.62;54.86
66373;SHT30;53168;51.146;17.120;2022-09-17T15:32:04;20.65;54.24
66373;SHT30;53168;51.146;17.120;2022-09-17T15:34:40;20.17;53.78
66373;SHT30;53168;51.146;17.120;2022-09-17T15:37:16;19.63;53.54
66373;SHT30;53168;51.146;17.120;2022-09-17T15:39:47;19.07;54.31
66373;SHT30;53168;51.146;17.120;2022-09-17T15:42:21;18.60;54.93
66373;SHT30;53168;51.146;17.120;2022-09-17T15:45:06;18.04;55.86
66373;SHT30;53168;51.146;17.120;2022-09-17T15:47:49;17.32;57.83
66373;SHT30;53168;51.146;17.120;2022-09-17T15:50:22;16.63;59.88
66373;SHT30;53168;51.146;17.120;2022-09-17T15:53:13;16.00;61.06
66373;SHT30;53168;51.146;17.120;2022-09-17T15:58:56;15.06;63.51
66373;SHT30;53168;51.146;17.120;2022-09-17T16:04:23;14.36;63.73
66373;SHT30;53168;51.146;17.120;2022-09-17T16:06:56;14.15;64.10
66373;SHT30;53168;51.146;17.120;2022-09-17T16:09:55;13.97;64.99
66373;SHT30;53168;51.146;17.120;2022-09-17T16:12:25;13.87;65.65
66373;SHT30;53168;51.146;17.120;2022-09-17T16:14:56;13.76;66.03
66373;SHT30;53168;51.146;17.120;2022-09-17T16:17:28;13.69;66.10
66373;SHT30;53168;51.146;17.120;2022-09-17T16:20:11;13.64;66.59
66373;SHT30;53168;51.146;17.120;2022-09-17T16:22:47;13.59;66.98
66373;SHT30;53168;51.146;17.120;2022-09-17T16:25:23;13.58;66.83
66373;SHT30;53168;51.146;17.120;2022-09-17T16:27:55;13.61;66.81
66373;SHT30;53168;51.146;17.120;2022-09-17T16:30:29;13.65;66.91
66373;SHT30;53168;51.146;17.120;2022-09-17T16:32:59;13.63;67.34
66373;SHT30;53168;51.146;17.120;2022-09-17T16:35:30;13.57;67.97
66373;SHT30;53168;51.146;17.120;2022-09-17T16:37:59;13.48;67.68
66373;SHT30;53168;51.146;17.120;2022-09-17T16:40:28;13.41;67.87
66373;SHT30;53168;51.146;17.120;2022-09-17T16:42:59;13.35;68.06
66373;SHT30;53168;51.146;17.120;2022-09-17T16:45:30;13.28;68.44
66373;SHT30;53168;51.146;17.120;2022-09-17T16:47:59;13.22;68.93
66373;SHT30;53168;51.146;17.120;2022-09-17T16:50:29;13.17;68.67
66373;SHT30;53168;51.146;17.120;2022-09-17T16:53:00;13.12;68.96
66373;SHT30;53168;51.146;17.120;2022-09-17T16:55:32;13.10;69.21
66373;SHT30;53168;51.146;17.120;2022-09-17T16:58:01;13.09;69.51
66373;SHT30;53168;51.146;17.120;2022-09-17T17:00:31;13.06;70.01
66373;SHT30;53168;51.146;17.120;2022-09-17T17:03:00;13.03;70.23
66373;SHT30;53168;51.146;17.120;2022-09-17T17:05:34;12.97;70.82
66373;SHT30;53168;51.146;17.120;2022-09-17T17:08:04;12.93;70.85
66373;SHT30;53168;51.146;17.120;2022-09-17T17:10:36;12.91;70.47
66373;SHT30;53168;51.146;17.120;2022-09-17T17:13:11;12.90;70.54
66373;SHT30;53168;51.146;17.120;2022-09-17T17:15:51;12.85;70.88
66373;SHT30;53168;51.146;17.120;2022-09-17T17:18:20;12.81;70.34
66373;SHT30;53168;51.146;17.120;2022-09-17T17:20:51;12.77;69.94
66373;SHT30;53168;51.146;17.120;2022-09-17T17:23:21;12.73;69.88
66373;SHT30;53168;51.146;17.120;2022-09-17T17:25:50;12.71;69.82
66373;SHT30;53168;51.146;17.120;2022-09-17T17:28:20;12.69;69.70
66373;SHT30;53168;51.146;17.120;2022-09-17T17:30:49;12.69;69.78